Terminal Aerodrome Forecast
Issued by NWS Huntsville, AL

Home | Current Version | Previous Version | Text Only | Print | Product List | Glossary On
Versions: 1 2 3 4 5 6 7 8 9 10 11 12 13 14 15 16 17 18 19 20 21 22 23 24 25 26 27 28 29 30 31 32 33 34 35 36 37 38
000
FTUS44 KHUN 070541
TAFMSL
TAF
KMSL 070541Z 0706/0806 20003KT P6SM SCT250
     FM070900 20003KT P6SM FEW015 SCT025 BKN080
      TEMPO 0710/0712 5SM BR
     FM071400 24010KT P6SM SCT030 SCT150
     FM080000 20003KT P6SM SCT150=

USA.gov is the U.S. government's official web portal to all federal, state and local government web resources and services.